sensor_id;sensor_type;location;lat;lon;timestamp;temperature;humidity
64705;DHT22;51131;52.298;13.686;2022-11-20T00:01:13;17.50;48.70
64705;DHT22;51131;52.298;13.686;2022-11-20T00:03:40;17.50;49.10
64705;DHT22;51131;52.298;13.686;2022-11-20T00:06:08;17.40;48.90
64705;DHT22;51131;52.298;13.686;2022-11-20T00:08:35;17.40;48.80
64705;DHT22;51131;52.298;13.686;2022-11-20T00:11:06;17.40;48.50
64705;DHT22;51131;52.298;13.686;2022-11-20T00:13:39;17.40;49.10
64705;DHT22;51131;52.298;13.686;2022-11-20T00:16:07;17.40;49.00
64705;DHT22;51131;52.298;13.686;2022-11-20T00:18:35;17.40;49.10
64705;DHT22;51131;52.298;13.686;2022-11-20T00:21:03;17.40;48.60
64705;DHT22;51131;52.298;13.686;2022-11-20T00:23:32;17.40;48.30
64705;DHT22;51131;52.298;13.686;2022-11-20T00:26:03;18.00;49.60
64705;DHT22;51131;52.298;13.686;2022-11-20T00:28:30;17.40;49.30
64705;DHT22;51131;52.298;13.686;2022-11-20T00:31:00;17.50;49.00
64705;DHT22;51131;52.298;13.686;2022-11-20T00:33:33;17.40;48.30
64705;DHT22;51131;52.298;13.686;2022-11-20T00:36:04;17.40;48.10
64705;DHT22;51131;52.298;13.686;2022-11-20T00:38:31;17.40;49.10
64705;DHT22;51131;52.298;13.686;2022-11-20T00:40:58;17.40;49.10
64705;DHT22;51131;52.298;13.686;2022-11-20T00:43:27;17.40;48.80
64705;DHT22;51131;52.298;13.686;2022-11-20T00:46:10;17.40;48.80
64705;DHT22;51131;52.298;13.686;2022-11-20T00:48:37;17.10;48.00
64705;DHT22;51131;52.298;13.686;2022-11-20T00:51:04;17.40;49.20
64705;DHT22;51131;52.298;13.686;2022-11-20T00:53:33;17.40;49.30
64705;DHT22;51131;52.298;13.686;2022-11-20T00:56:01;17.40;49.00
64705;DHT22;51131;52.298;13.686;2022-11-20T00:58:29;17.40;48.70
64705;DHT22;51131;52.298;13.686;2022-11-20T01:01:00;17.40;48.40
64705;DHT22;51131;52.298;13.686;2022-11-20T01:03:27;17.40;49.30
64705;DHT22;51131;52.298;13.686;2022-11-20T01:05:53;17.40;49.30
64705;DHT22;51131;52.298;13.686;2022-11-20T01:08:20;17.40;49.30
64705;DHT22;51131;52.298;13.686;2022-11-20T01:10:47;17.40;48.40
64705;DHT22;51131;52.298;13.686;2022-11-20T01:13:13;17.40;48.20
64705;DHT22;51131;52.298;13.686;2022-11-20T01:16:06;17.40;49.30
64705;DHT22;51131;52.298;13.686;2022-11-20T01:18:33;17.40;49.50
64705;DHT22;51131;52.298;13.686;2022-11-20T01:21:01;17.40;49.10
64705;DHT22;51131;52.298;13.686;2022-11-20T01:23:32;17.40;48.30
64705;DHT22;51131;52.298;13.686;2022-11-20T01:26:00;17.40;48.60
64705;DHT22;51131;52.298;13.686;2022-11-20T01:28:28;17.40;48.60
64705;DHT22;51131;52.298;13.686;2022-11-20T01:30:55;17.40;49.30
64705;DHT22;51131;52.298;13.686;2022-11-20T01:33:21;17.40;49.30
64705;DHT22;51131;52.298;13.686;2022-11-20T01:35:48;17.40;47.80
64705;DHT22;51131;52.298;13.686;2022-11-20T01:38:15;17.40;47.90
64705;DHT22;51131;52.298;13.686;2022-11-20T01:40:42;17.30;49.00
64705;DHT22;51131;52.298;13.686;2022-11-20T01:43:12;17.30;49.10
64705;DHT22;51131;52.298;13.686;2022-11-20T01:49:18;17.40;47.80
64705;DHT22;51131;52.298;13.686;2022-11-20T01:53:51;17.40;49.20
64705;DHT22;51131;52.298;13.686;2022-11-20T01:56:20;17.30;48.60
64705;DHT22;51131;52.298;13.686;2022-11-20T01:58:48;17.30;48.20
64705;DHT22;51131;52.298;13.686;2022-11-20T02:01:17;17.40;47.50
64705;DHT22;51131;52.298;13.686;2022-11-20T02:03:44;17.30;48.70
64705;DHT22;51131;52.298;13.686;2022-11-20T02:06:25;17.30;49.20
64705;DHT22;51131;52.298;13.686;2022-11-20T02:08:52;17.30;49.10
64705;DHT22;51131;52.298;13.686;2022-11-20T02:11:19;17.40;48.30
64705;DHT22;51131;52.298;13.686;2022-11-20T02:13:46;17.30;47.80
64705;DHT22;51131;52.298;13.686;2022-11-20T02:18:43;17.30;49.30
64705;DHT22;51131;52.298;13.686;2022-11-20T02:23:58;17.30;47.80
64705;DHT22;51131;52.298;13.686;2022-11-20T02:26:26;17.30;48.20
64705;DHT22;51131;52.298;13.686;2022-11-20T02:28:54;17.30;49.10
64705;DHT22;51131;52.298;13.686;2022-11-20T02:31:21;17.30;48.60
64705;DHT22;51131;52.298;13.686;2022-11-20T02:33:47;17.30;47.90
64705;DHT22;51131;52.298;13.686;2022-11-20T02:36:20;17.30;47.50
64705;DHT22;51131;52.298;13.686;2022-11-20T02:38:46;17.30;48.00
64705;DHT22;51131;52.298;13.686;2022-11-20T02:41:14;17.30;48.90
64705;DHT22;51131;52.298;13.686;2022-11-20T02:43:41;17.30;48.70
64705;DHT22;51131;52.298;13.686;2022-11-20T02:46:08;17.30;48.00
64705;DHT22;51131;52.298;13.686;2022-11-20T02:48:34;17.30;47.30
64705;DHT22;51131;52.298;13.686;2022-11-20T02:51:01;17.00;48.20
64705;DHT22;51131;52.298;13.686;2022-11-20T02:53:28;17.30;49.00
64705;DHT22;51131;52.298;13.686;2022-11-20T02:55:55;17.30;48.50
64705;DHT22;51131;52.298;13.686;2022-11-20T02:58:21;17.30;48.10
64705;DHT22;51131;52.298;13.686;2022-11-20T03:00:48;17.30;47.30
64705;DHT22;51131;52.298;13.686;2022-11-20T03:03:15;17.30;48.70
64705;DHT22;51131;52.298;13.686;2022-11-20T03:05:41;17.30;49.20
64705;DHT22;51131;52.298;13.686;2022-11-20T03:08:08;17.30;48.40
64705;DHT22;51131;52.298;13.686;2022-11-20T03:10:35;17.30;47.70
64705;DHT22;51131;52.298;13.686;2022-11-20T03:13:01;17.30;47.80
64705;DHT22;51131;52.298;13.686;2022-11-20T03:15:28;17.30;48.60
64705;DHT22;51131;52.298;13.686;2022-11-20T03:17:55;17.30;49.00
64705;DHT22;51131;52.298;13.686;2022-11-20T03:20:22;17.30;49.20
64705;DHT22;51131;52.298;13.686;2022-11-20T03:22:49;17.30;48.00
64705;DHT22;51131;52.298;13.686;2022-11-20T03:25:16;17.30;47.80
64705;DHT22;51131;52.298;13.686;2022-11-20T03:27:42;17.30;48.20
64705;DHT22;51131;52.298;13.686;2022-11-20T03:30:09;17.40;48.00
64705;DHT22;51131;52.298;13.686;2022-11-20T03:32:36;17.50;48.70
64705;DHT22;51131;52.298;13.686;2022-11-20T03:35:03;17.50;48.70
64705;DHT22;51131;52.298;13.686;2022-11-20T03:37:29;17.50;48.50
64705;DHT22;51131;52.298;13.686;2022-11-20T03:39:56;17.50;48.20
64705;DHT22;51131;52.298;13.686;2022-11-20T03:42:23;17.50;48.20
64705;DHT22;51131;52.298;13.686;2022-11-20T03:45:08;17.50;48.10
64705;DHT22;51131;52.298;13.686;2022-11-20T03:47:35;17.50;47.90
64705;DHT22;51131;52.298;13.686;2022-11-20T03:50:02;17.50;47.70
64705;DHT22;51131;52.298;13.686;2022-11-20T03:52:29;17.50;47.90
64705;DHT22;51131;52.298;13.686;2022-11-20T03:54:56;17.50;48.10
64705;DHT22;51131;52.298;13.686;2022-11-20T03:57:23;17.40;47.70
64705;DHT22;51131;52.298;13.686;2022-11-20T03:59:50;17.50;47.70
64705;DHT22;51131;52.298;13.686;2022-11-20T04:02:16;17.40;47.60
64705;DHT22;51131;52.298;13.686;2022-11-20T04:04:43;17.50;47.70
64705;DHT22;51131;52.298;13.686;2022-11-20T04:07:10;17.40;47.90
64705;DHT22;51131;52.298;13.686;2022-11-20T04:09:37;17.40;48.80
64705;DHT22;51131;52.298;13.686;2022-11-20T04:12:03;17.40;47.90
64705;DHT22;51131;52.298;13.686;2022-11-20T04:14:30;17.40;47.50
64705;DHT22;51131;52.298;13.686;2022-11-20T04:16:57;17.40;47.70
64705;DHT22;51131;52.298;13.686;2022-11-20T04:19:24;17.40;48.00
64705;DHT22;51131;52.298;13.686;2022-11-20T04:21:50;17.40;48.00
64705;DHT22;51131;52.298;13.686;2022-11-20T04:24:17;17.40;47.70
64705;DHT22;51131;52.298;13.686;2022-11-20T04:26:44;17.40;47.30
64705;DHT22;51131;52.298;13.686;2022-11-20T04:29:11;17.40;47.50
64705;DHT22;51131;52.298;13.686;2022-11-20T04:31:38;17.40;48.60
64705;DHT22;51131;52.298;13.686;2022-11-20T04:34:05;17.30;48.20
64705;DHT22;51131;52.298;13.686;2022-11-20T04:36:32;17.40;47.70
64705;DHT22;51131;52.298;13.686;2022-11-20T04:39:00;17.40;47.00
64705;DHT22;51131;52.298;13.686;2022-11-20T04:41:28;17.30;47.60
64705;DHT22;51131;52.298;13.686;2022-11-20T04:43:56;17.40;48.50
64705;DHT22;51131;52.298;13.686;2022-11-20T04:46:26;17.30;48.40
64705;DHT22;51131;52.298;13.686;2022-11-20T04:48:53;17.30;47.90
64705;DHT22;51131;52.298;13.686;2022-11-20T04:51:20;17.40;47.20
64705;DHT22;51131;52.298;13.686;2022-11-20T04:53:47;17.30;47.70
64705;DHT22;51131;52.298;13.686;2022-11-20T04:56:14;17.30;48.60
64705;DHT22;51131;52.298;13.686;2022-11-20T04:58:41;17.30;48.70
64705;DHT22;51131;52.298;13.686;2022-11-20T05:01:12;17.30;47.80
64705;DHT22;51131;52.298;13.686;2022-11-20T05:03:40;17.30;47.50
64705;DHT22;51131;52.298;13.686;2022-11-20T05:06:08;17.30;47.90
64705;DHT22;51131;52.298;13.686;2022-11-20T05:08:35;17.30;49.00
64705;DHT22;51131;52.298;13.686;2022-11-20T05:11:06;17.30;48.80
64705;DHT22;51131;52.298;13.686;2022-11-20T05:13:33;17.30;48.00
64705;DHT22;51131;52.298;13.686;2022-11-20T05:16:04;17.30;47.20
64705;DHT22;51131;52.298;13.686;2022-11-20T05:18:32;17.30;47.60
64705;DHT22;51131;52.298;13.686;2022-11-20T05:20:59;17.30;48.80
64705;DHT22;51131;52.298;13.686;2022-11-20T05:23:26;17.30;49.10
64705;DHT22;51131;52.298;13.686;2022-11-20T05:25:53;17.30;48.00
64705;DHT22;51131;52.298;13.686;2022-11-20T05:28:25;17.30;47.30
64705;DHT22;51131;52.298;13.686;2022-11-20T05:30:52;17.30;48.00
64705;DHT22;51131;52.298;13.686;2022-11-20T05:33:19;17.30;48.60
64705;DHT22;51131;52.298;13.686;2022-11-20T05:35:46;17.30;48.30
64705;DHT22;51131;52.298;13.686;2022-11-20T05:38:12;17.30;47.60
64705;DHT22;51131;52.298;13.686;2022-11-20T05:40:39;17.30;47.10
64705;DHT22;51131;52.298;13.686;2022-11-20T05:43:06;17.30;48.40
64705;DHT22;51131;52.298;13.686;2022-11-20T05:45:32;17.30;49.20
64705;DHT22;51131;52.298;13.686;2022-11-20T05:47:59;17.30;49.10
64705;DHT22;51131;52.298;13.686;2022-11-20T05:50:27;17.30;48.00
64705;DHT22;51131;52.298;13.686;2022-11-20T05:52:53;17.30;47.80
64705;DHT22;51131;52.298;13.686;2022-11-20T05:55:20;17.40;48.30
64705;DHT22;51131;52.298;13.686;2022-11-20T05:57:47;17.40;48.40
64705;DHT22;51131;52.298;13.686;2022-11-20T06:00:14;17.50;48.70
64705;DHT22;51131;52.298;13.686;2022-11-20T06:02:41;17.60;48.70
64705;DHT22;51131;52.298;13.686;2022-11-20T06:05:07;17.50;48.30
64705;DHT22;51131;52.298;13.686;2022-11-20T06:07:34;17.60;48.20
64705;DHT22;51131;52.298;13.686;2022-11-20T06:10:01;17.60;48.20
64705;DHT22;51131;52.298;13.686;2022-11-20T06:12:27;17.50;48.20
64705;DHT22;51131;52.298;13.686;2022-11-20T06:14:54;17.50;48.00
64705;DHT22;51131;52.298;13.686;2022-11-20T06:17:21;17.50;48.00
64705;DHT22;51131;52.298;13.686;2022-11-20T06:19:47;17.50;47.90
64705;DHT22;51131;52.298;13.686;2022-11-20T06:22:14;17.50;48.00
64705;DHT22;51131;52.298;13.686;2022-11-20T06:24:41;17.50;48.10
64705;DHT22;51131;52.298;13.686;2022-11-20T06:27:08;17.50;47.60
64705;DHT22;51131;52.298;13.686;2022-11-20T06:29:34;17.50;47.50
64705;DHT22;51131;52.298;13.686;2022-11-20T06:32:01;17.50;47.90
64705;DHT22;51131;52.298;13.686;2022-11-20T06:34:28;17.40;48.30
64705;DHT22;51131;52.298;13.686;2022-11-20T06:36:55;17.40;48.70
64705;DHT22;51131;52.298;13.686;2022-11-20T06:39:21;17.40;47.60
64705;DHT22;51131;52.298;13.686;2022-11-20T06:41:48;17.40;47.10
64705;DHT22;51131;52.298;13.686;2022-11-20T06:44:19;17.40;48.30
64705;DHT22;51131;52.298;13.686;2022-11-20T06:46:46;17.40;48.80
64705;DHT22;51131;52.298;13.686;2022-11-20T06:49:13;17.40;48.30
64705;DHT22;51131;52.298;13.686;2022-11-20T06:51:39;17.40;48.30
64705;DHT22;51131;52.298;13.686;2022-11-20T06:54:06;17.40;47.40
64705;DHT22;51131;52.298;13.686;2022-11-20T06:56:33;17.40;47.90
64705;DHT22;51131;52.298;13.686;2022-11-20T06:59:03;17.30;48.50
64705;DHT22;51131;52.298;13.686;2022-11-20T07:01:29;17.30;48.60
64705;DHT22;51131;52.298;13.686;2022-11-20T07:03:56;17.30;48.30
64705;DHT22;51131;52.298;13.686;2022-11-20T07:06:23;17.30;47.40
64705;DHT22;51131;52.298;13.686;2022-11-20T07:08:50;17.30;48.20
64705;DHT22;51131;52.298;13.686;2022-11-20T07:11:17;17.30;48.80
64705;DHT22;51131;52.298;13.686;2022-11-20T07:13:44;17.30;49.20
64705;DHT22;51131;52.298;13.686;2022-11-20T07:16:11;17.30;48.20
64705;DHT22;51131;52.298;13.686;2022-11-20T07:18:37;17.30;47.20
64705;DHT22;51131;52.298;13.686;2022-11-20T07:21:05;17.30;46.80
64705;DHT22;51131;52.298;13.686;2022-11-20T07:23:32;17.30;47.70
64705;DHT22;51131;52.298;13.686;2022-11-20T07:26:03;17.30;48.60
64705;DHT22;51131;52.298;13.686;2022-11-20T07:28:29;17.30;48.40
64705;DHT22;51131;52.298;13.686;2022-11-20T07:30:56;17.30;47.40
64705;DHT22;51131;52.298;13.686;2022-11-20T07:33:23;17.30;46.60
64705;DHT22;51131;52.298;13.686;2022-11-20T07:35:49;17.30;47.80
64705;DHT22;51131;52.298;13.686;2022-11-20T07:38:16;17.30;49.00
64705;DHT22;51131;52.298;13.686;2022-11-20T07:40:43;17.30;49.00
64705;DHT22;51131;52.298;13.686;2022-11-20T07:43:10;17.30;47.50
64705;DHT22;51131;52.298;13.686;2022-11-20T07:45:37;17.30;47.40
64705;DHT22;51131;52.298;13.686;2022-11-20T07:48:04;17.30;48.60
64705;DHT22;51131;52.298;13.686;2022-11-20T07:50:30;17.30;48.70
64705;DHT22;51131;52.298;13.686;2022-11-20T07:53:01;17.30;48.20
64705;DHT22;51131;52.298;13.686;2022-11-20T07:55:28;17.30;47.30
64705;DHT22;51131;52.298;13.686;2022-11-20T07:57:55;17.30;47.80
64705;DHT22;51131;52.298;13.686;2022-11-20T08:00:22;17.30;48.70
64705;DHT22;51131;52.298;13.686;2022-11-20T08:02:49;17.30;48.50
64705;DHT22;51131;52.298;13.686;2022-11-20T08:05:16;17.30;47.90
64705;DHT22;51131;52.298;13.686;2022-11-20T08:07:43;17.30;47.60
64705;DHT22;51131;52.298;13.686;2022-11-20T08:10:11;17.30;48.80
64705;DHT22;51131;52.298;13.686;2022-11-20T08:12:48;17.30;48.70
64705;DHT22;51131;52.298;13.686;2022-11-20T08:15:34;17.30;48.80
64705;DHT22;51131;52.298;13.686;2022-11-20T08:18:02;17.30;48.00
64705;DHT22;51131;52.298;13.686;2022-11-20T08:20:49;17.30;47.40
64705;DHT22;51131;52.298;13.686;2022-11-20T08:23:15;17.30;48.70
64705;DHT22;51131;52.298;13.686;2022-11-20T08:25:42;17.20;48.60
64705;DHT22;51131;52.298;13.686;2022-11-20T08:28:09;17.30;48.40
64705;DHT22;51131;52.298;13.686;2022-11-20T08:30:46;17.30;47.40
64705;DHT22;51131;52.298;13.686;2022-11-20T08:33:13;17.30;48.50
64705;DHT22;51131;52.298;13.686;2022-11-20T08:35:40;17.30;48.80
64705;DHT22;51131;52.298;13.686;2022-11-20T08:38:08;17.30;49.00
64705;DHT22;51131;52.298;13.686;2022-11-20T08:40:35;17.30;48.70
64705;DHT22;51131;52.298;13.686;2022-11-20T08:43:02;17.30;48.00
64705;DHT22;51131;52.298;13.686;2022-11-20T08:45:28;17.30;49.00
64705;DHT22;51131;52.298;13.686;2022-11-20T08:48:03;17.20;48.40
64705;DHT22;51131;52.298;13.686;2022-11-20T08:50:30;17.20;48.80
64705;DHT22;51131;52.298;13.686;2022-11-20T08:53:03;17.30;47.60
64705;DHT22;51131;52.298;13.686;2022-11-20T08:55:30;17.30;47.40
64705;DHT22;51131;52.298;13.686;2022-11-20T08:57:57;17.30;48.80
64705;DHT22;51131;52.298;13.686;2022-11-20T09:00:23;17.20;48.60
64705;DHT22;51131;52.298;13.686;2022-11-20T09:02:50;17.20;48.00
64705;DHT22;51131;52.298;13.686;2022-11-20T09:05:18;17.30;46.80
64705;DHT22;51131;52.298;13.686;2022-11-20T09:07:45;17.30;48.20
64705;DHT22;51131;52.298;13.686;2022-11-20T09:10:11;17.20;48.50
64705;DHT22;51131;52.298;13.686;2022-11-20T09:12:53;17.20;48.60
64705;DHT22;51131;52.298;13.686;2022-11-20T09:15:22;17.20;47.60
64705;DHT22;51131;52.298;13.686;2022-11-20T09:17:50;17.30;46.80
64705;DHT22;51131;52.298;13.686;2022-11-20T09:20:17;17.20;48.50
64705;DHT22;51131;52.298;13.686;2022-11-20T09:22:43;17.20;48.40
64705;DHT22;51131;52.298;13.686;2022-11-20T09:25:10;17.20;48.30
64705;DHT22;51131;52.298;13.686;2022-11-20T09:27:37;17.30;48.10
64705;DHT22;51131;52.298;13.686;2022-11-20T09:30:04;17.30;48.00
64705;DHT22;51131;52.298;13.686;2022-11-20T09:32:31;17.30;47.50
64705;DHT22;51131;52.298;13.686;2022-11-20T09:34:57;17.40;48.30
64705;DHT22;51131;52.298;13.686;2022-11-20T09:37:29;17.50;48.30
64705;DHT22;51131;52.298;13.686;2022-11-20T09:39:56;17.60;48.30
64705;DHT22;51131;52.298;13.686;2022-11-20T09:42:26;17.60;48.30
64705;DHT22;51131;52.298;13.686;2022-11-20T09:52:30;17.50;48.20
64705;DHT22;51131;52.298;13.686;2022-11-20T09:55:00;17.50;47.80
64705;DHT22;51131;52.298;13.686;2022-11-20T09:57:37;17.50;47.90
64705;DHT22;51131;52.298;13.686;2022-11-20T10:00:05;17.50;48.10
64705;DHT22;51131;52.298;13.686;2022-11-20T10:02:37;17.50;48.20
64705;DHT22;51131;52.298;13.686;2022-11-20T10:07:38;17.50;48.30
64705;DHT22;51131;52.298;13.686;2022-11-20T10:10:13;17.50;48.70
64705;DHT22;51131;52.298;13.686;2022-11-20T10:15:27;17.40;48.30
64705;DHT22;51131;52.298;13.686;2022-11-20T10:22:55;17.40;48.70
64705;DHT22;51131;52.298;13.686;2022-11-20T10:25:49;17.40;49.10
64705;DHT22;51131;52.298;13.686;2022-11-20T10:28:24;17.40;49.00
64705;DHT22;51131;52.298;13.686;2022-11-20T10:31:02;17.40;48.70
64705;DHT22;51131;52.298;13.686;2022-11-20T10:33:30;17.40;49.20
64705;DHT22;51131;52.298;13.686;2022-11-20T10:36:23;17.30;49.10
64705;DHT22;51131;52.298;13.686;2022-11-20T10:38:58;17.00;48.20
64705;DHT22;51131;52.298;13.686;2022-11-20T10:41:30;17.40;48.90
64705;DHT22;51131;52.298;13.686;2022-11-20T10:46:39;17.40;49.10
64705;DHT22;51131;52.298;13.686;2022-11-20T10:49:17;17.40;49.10
64705;DHT22;51131;52.298;13.686;2022-11-20T10:51:50;17.40;48.70
64705;DHT22;51131;52.298;13.686;2022-11-20T10:56:47;17.40;48.70
64705;DHT22;51131;52.298;13.686;2022-11-20T11:02:01;17.40;48.80
64705;DHT22;51131;52.298;13.686;2022-11-20T11:07:02;17.30;48.90
64705;DHT22;51131;52.298;13.686;2022-11-20T11:09:34;17.30;48.60
64705;DHT22;51131;52.298;13.686;2022-11-20T11:12:05;17.30;48.90
64705;DHT22;51131;52.298;13.686;2022-11-20T11:14:41;17.30;48.80
64705;DHT22;51131;52.298;13.686;2022-11-20T11:17:17;17.30;48.60
64705;DHT22;51131;52.298;13.686;2022-11-20T11:19:44;17.30;48.50
64705;DHT22;51131;52.298;13.686;2022-11-20T11:22:15;17.30;48.50
64705;DHT22;51131;52.298;13.686;2022-11-20T11:24:51;17.30;48.90
64705;DHT22;51131;52.298;13.686;2022-11-20T11:27:17;17.30;48.10
64705;DHT22;51131;52.298;13.686;2022-11-20T11:29:45;17.30;48.70
64705;DHT22;51131;52.298;13.686;2022-11-20T11:32:12;17.30;48.80
64705;DHT22;51131;52.298;13.686;2022-11-20T11:34:40;17.30;48.80
64705;DHT22;51131;52.298;13.686;2022-11-20T11:37:14;17.30;48.80
64705;DHT22;51131;52.298;13.686;2022-11-20T11:39:43;17.30;48.10
64705;DHT22;51131;52.298;13.686;2022-11-20T11:42:16;17.30;48.90
64705;DHT22;51131;52.298;13.686;2022-11-20T11:44:44;17.30;49.00
64705;DHT22;51131;52.298;13.686;2022-11-20T11:47:36;17.30;49.20
64705;DHT22;51131;52.298;13.686;2022-11-20T11:50:20;17.30;48.20
64705;DHT22;51131;52.298;13.686;2022-11-20T11:52:50;17.30;48.60
64705;DHT22;51131;52.298;13.686;2022-11-20T11:55:26;17.30;49.30
64705;DHT22;51131;52.298;13.686;2022-11-20T12:00:21;17.30;48.80
64705;DHT22;51131;52.298;13.686;2022-11-20T12:02:52;17.30;48.20
64705;DHT22;51131;52.298;13.686;2022-11-20T12:05:21;17.40;47.70
64705;DHT22;51131;52.298;13.686;2022-11-20T12:15:33;17.40;48.20
64705;DHT22;51131;52.298;13.686;2022-11-20T12:18:00;17.40;48.40
64705;DHT22;51131;52.298;13.686;2022-11-20T12:20:29;17.40;48.80
64705;DHT22;51131;52.298;13.686;2022-11-20T12:25:25;17.40;48.60
64705;DHT22;51131;52.298;13.686;2022-11-20T12:30:48;17.40;48.90
64705;DHT22;51131;52.298;13.686;2022-11-20T12:55:01;17.30;48.80
64705;DHT22;51131;52.298;13.686;2022-11-20T12:57:32;17.30;48.80
64705;DHT22;51131;52.298;13.686;2022-11-20T13:00:14;17.30;49.00
64705;DHT22;51131;52.298;13.686;2022-11-20T13:05:19;17.40;49.40
64705;DHT22;51131;52.298;13.686;2022-11-20T13:07:47;17.50;49.40
64705;DHT22;51131;52.298;13.686;2022-11-20T13:10:31;17.50;49.30
64705;DHT22;51131;52.298;13.686;2022-11-20T13:13:01;17.50;50.30
64705;DHT22;51131;52.298;13.686;2022-11-20T13:18:00;17.50;50.50
64705;DHT22;51131;52.298;13.686;2022-11-20T13:20:27;17.50;50.60
64705;DHT22;51131;52.298;13.686;2022-11-20T13:22:54;17.60;50.70
64705;DHT22;51131;52.298;13.686;2022-11-20T13:25:27;17.40;50.70
64705;DHT22;51131;52.298;13.686;2022-11-20T13:27:54;17.40;50.90
64705;DHT22;51131;52.298;13.686;2022-11-20T13:30:25;17.40;51.10
64705;DHT22;51131;52.298;13.686;2022-11-20T13:37:59;17.40;51.60
64705;DHT22;51131;52.298;13.686;2022-11-20T13:40:26;17.40;51.70
64705;DHT22;51131;52.298;13.686;2022-11-20T13:43:00;17.40;51.70
64705;DHT22;51131;52.298;13.686;2022-11-20T13:45:31;17.30;51.90
64705;DHT22;51131;52.298;13.686;2022-11-20T13:48:01;17.40;52.00
64705;DHT22;51131;52.298;13.686;2022-11-20T13:53:23;17.40;51.40
64705;DHT22;51131;52.298;13.686;2022-11-20T13:55:58;17.30;52.60
64705;DHT22;51131;52.298;13.686;2022-11-20T14:01:08;17.40;52.60
64705;DHT22;51131;52.298;13.686;2022-11-20T14:03:35;17.30;52.80
64705;DHT22;51131;52.298;13.686;2022-11-20T14:08:49;17.40;51.70
64705;DHT22;51131;52.298;13.686;2022-11-20T14:16:20;17.50;54.00
64705;DHT22;51131;52.298;13.686;2022-11-20T14:18:46;17.40;54.10
64705;DHT22;51131;52.298;13.686;2022-11-20T14:21:23;17.40;53.90
64705;DHT22;51131;52.298;13.686;2022-11-20T14:23:52;17.40;54.00
64705;DHT22;51131;52.298;13.686;2022-11-20T14:26:18;17.40;54.00
64705;DHT22;51131;52.298;13.686;2022-11-20T14:28:49;17.40;53.90
64705;DHT22;51131;52.298;13.686;2022-11-20T14:31:18;17.40;53.90
64705;DHT22;51131;52.298;13.686;2022-11-20T14:33:47;17.40;54.00
64705;DHT22;51131;52.298;13.686;2022-11-20T14:36:18;17.40;54.20
64705;DHT22;51131;52.298;13.686;2022-11-20T14:38:46;17.40;54.10
64705;DHT22;51131;52.298;13.686;2022-11-20T14:41:20;17.40;53.90
64705;DHT22;51131;52.298;13.686;2022-11-20T14:43:49;17.30;53.80
64705;DHT22;51131;52.298;13.686;2022-11-20T14:46:16;17.30;53.80
64705;DHT22;51131;52.298;13.686;2022-11-20T14:48:45;17.30;54.00
64705;DHT22;51131;52.298;13.686;2022-11-20T14:57:00;17.30;53.80
64705;DHT22;51131;52.298;13.686;2022-11-20T14:59:30;17.30;53.70
64705;DHT22;51131;52.298;13.686;2022-11-20T15:02:05;17.30;53.20
64705;DHT22;51131;52.298;13.686;2022-11-20T15:04:32;17.30;53.40
64705;DHT22;51131;52.298;13.686;2022-11-20T15:06:59;17.30;53.50
64705;DHT22;51131;52.298;13.686;2022-11-20T15:09:29;17.30;54.00
64705;DHT22;51131;52.298;13.686;2022-11-20T15:11:59;17.30;53.80
64705;DHT22;51131;52.298;13.686;2022-11-20T15:14:27;17.30;52.70
64705;DHT22;51131;52.298;13.686;2022-11-20T15:16:55;17.30;52.80
64705;DHT22;51131;52.298;13.686;2022-11-20T15:19:22;17.30;53.50
64705;DHT22;51131;52.298;13.686;2022-11-20T15:21:50;17.30;54.40
64705;DHT22;51131;52.298;13.686;2022-11-20T15:24:17;17.30;54.40
64705;DHT22;51131;52.298;13.686;2022-11-20T15:26:44;17.30;54.30
64705;DHT22;51131;52.298;13.686;2022-11-20T15:29:12;17.30;54.40
64705;DHT22;51131;52.298;13.686;2022-11-20T15:31:39;17.30;54.50
64705;DHT22;51131;52.298;13.686;2022-11-20T15:34:11;17.30;54.20
64705;DHT22;51131;52.298;13.686;2022-11-20T15:36:39;17.30;53.20
64705;DHT22;51131;52.298;13.686;2022-11-20T15:39:06;17.30;54.20
64705;DHT22;51131;52.298;13.686;2022-11-20T15:41:38;17.30;54.60
64705;DHT22;51131;52.298;13.686;2022-11-20T15:44:05;17.30;54.40
64705;DHT22;51131;52.298;13.686;2022-11-20T15:46:52;17.40;54.10
64705;DHT22;51131;52.298;13.686;2022-11-20T15:49:19;17.50;54.00
64705;DHT22;51131;52.298;13.686;2022-11-20T15:51:49;17.50;53.90
64705;DHT22;51131;52.298;13.686;2022-11-20T15:54:18;17.60;54.00
64705;DHT22;51131;52.298;13.686;2022-11-20T15:56:47;17.60;53.70
64705;DHT22;51131;52.298;13.686;2022-11-20T15:59:15;17.60;53.80
64705;DHT22;51131;52.298;13.686;2022-11-20T16:01:41;17.50;53.50
64705;DHT22;51131;52.298;13.686;2022-11-20T16:04:15;17.50;53.50
64705;DHT22;51131;52.298;13.686;2022-11-20T16:06:42;17.50;53.70
64705;DHT22;51131;52.298;13.686;2022-11-20T16:09:09;17.50;54.40
64705;DHT22;51131;52.298;13.686;2022-11-20T16:11:36;17.50;54.00
64705;DHT22;51131;52.298;13.686;2022-11-20T16:14:03;17.40;54.10
64705;DHT22;51131;52.298;13.686;2022-11-20T16:16:49;17.40;54.10
64705;DHT22;51131;52.298;13.686;2022-11-20T16:19:16;17.40;54.00
64705;DHT22;51131;52.298;13.686;2022-11-20T16:21:45;17.40;53.90
64705;DHT22;51131;52.298;13.686;2022-11-20T16:24:12;17.50;54.50
64705;DHT22;51131;52.298;13.686;2022-11-20T16:26:40;17.40;53.90
64705;DHT22;51131;52.298;13.686;2022-11-20T16:29:11;17.40;54.70
64705;DHT22;51131;52.298;13.686;2022-11-20T16:31:38;17.40;54.80
64705;DHT22;51131;52.298;13.686;2022-11-20T16:34:06;17.40;54.50
64705;DHT22;51131;52.298;13.686;2022-11-20T16:36:41;17.40;54.60
64705;DHT22;51131;52.298;13.686;2022-11-20T16:39:09;17.40;54.60
64705;DHT22;51131;52.298;13.686;2022-11-20T16:41:36;17.40;54.50
64705;DHT22;51131;52.298;13.686;2022-11-20T16:44:07;17.40;54.70
64705;DHT22;51131;52.298;13.686;2022-11-20T16:46:35;17.40;54.50
64705;DHT22;51131;52.298;13.686;2022-11-20T16:49:03;17.40;54.30
64705;DHT22;51131;52.298;13.686;2022-11-20T16:51:31;17.40;54.30
64705;DHT22;51131;52.298;13.686;2022-11-20T16:54:03;17.40;54.40
64705;DHT22;51131;52.298;13.686;2022-11-20T16:56:30;17.40;55.00
64705;DHT22;51131;52.298;13.686;2022-11-20T16:58:57;17.40;54.50
64705;DHT22;51131;52.298;13.686;2022-11-20T17:01:25;17.40;54.40
64705;DHT22;51131;52.298;13.686;2022-11-20T17:06:25;17.40;54.60
64705;DHT22;51131;52.298;13.686;2022-11-20T17:08:52;17.30;54.60
64705;DHT22;51131;52.298;13.686;2022-11-20T17:11:19;17.40;54.50
64705;DHT22;51131;52.298;13.686;2022-11-20T17:13:46;17.40;54.50